Time;durP1;ratioP1;P1;durP2;ratioP2;P2;SDS_P1;SDS_P2;PMS_P1;PMS_P2;Temp;Humidity;BMP_temperature;BMP_pressure;BME280_temperature;BME280_humidity;BME280_pressure;Samples;Min_cycle;Max_cycle;Signal;HPM_P1;HPM_P2
2022/12/09 00:04:42;;;;;;;14.57;10.53;;;4.10;99.90;;;;;;10435227;28;20303;-72
2022/12/09 00:09:43;;;;;;;13.43;10.50;;;4.10;99.90;;;;;;10428508;28;20696;-73
2022/12/09 00:14:43;;;;;;;14.23;10.30;;;4.10;99.90;;;;;;10440270;28;20224;-73
2022/12/09 00:19:50;;;;;;;14.67;10.33;;;4.10;99.90;;;;;;10430936;28;20224;-73
2022/12/09 00:24:50;;;;;;;13.10;10.23;;;4.10;99.90;;;;;;10425616;28;20221;-73
2022/12/09 00:29:51;;;;;;;12.97;10.20;;;4.10;99.90;;;;;;10425960;28;20209;-74
2022/12/09 00:34:51;;;;;;;14.30;10.33;;;4.10;99.90;;;;;;10425531;28;20303;-74
2022/12/09 00:39:52;;;;;;;14.63;9.83;;;4.10;99.90;;;;;;10438466;28;20593;-74
2022/12/09 00:44:52;;;;;;;13.43;9.87;;;4.20;99.90;;;;;;10426392;28;20220;-73
2022/12/09 00:49:53;;;;;;;15.43;10.90;;;4.20;99.90;;;;;;10431601;28;20562;-73
2022/12/09 00:54:53;;;;;;;14.97;10.37;;;4.20;99.90;;;;;;10416982;28;20228;-74
2022/12/09 00:59:54;;;;;;;16.77;10.57;;;4.10;99.90;;;;;;10425059;28;20208;-73
2022/12/09 01:04:55;;;;;;;13.27;10.10;;;4.10;99.90;;;;;;10436965;28;20212;-73
2022/12/09 01:09:55;;;;;;;14.03;10.43;;;4.10;99.90;;;;;;10410955;28;20710;-72
2022/12/09 01:14:56;;;;;;;14.53;10.63;;;4.00;99.90;;;;;;10432007;28;20222;-72
2022/12/09 01:19:56;;;;;;;12.77;10.43;;;4.00;99.90;;;;;;10426892;28;20216;-72
2022/12/09 01:24:57;;;;;;;14.93;10.17;;;4.00;99.90;;;;;;10425705;28;20299;-71
2022/12/09 01:29:58;;;;;;;13.03;9.97;;;4.00;99.90;;;;;;10424051;28;20219;-73
2022/12/09 01:34:59;;;;;;;13.50;9.73;;;4.10;99.90;;;;;;10414702;28;20702;-73
2022/12/09 01:39:59;;;;;;;13.70;10.33;;;4.10;99.90;;;;;;10432623;28;20251;-74
2022/12/09 01:45:18;;;;;;;15.40;11.53;;;4.10;99.90;;;;;;10433862;28;20270;-73
2022/12/09 01:50:23;;;;;;;14.50;10.30;;;4.10;99.90;;;;;;10412890;28;20648;-74
2022/12/09 01:55:25;;;;;;;14.67;10.23;;;4.10;99.90;;;;;;10423490;28;20616;-74
2022/12/09 02:00:25;;;;;;;14.33;10.73;;;4.10;99.90;;;;;;10425753;28;20255;-74
2022/12/09 02:05:27;;;;;;;12.83;9.43;;;4.10;99.90;;;;;;10418257;28;20848;-73
2022/12/09 02:10:28;;;;;;;14.70;11.10;;;4.10;99.90;;;;;;10430959;28;20212;-71
2022/12/09 02:15:38;;;;;;;14.13;9.77;;;4.10;99.90;;;;;;10426424;28;20622;-72
2022/12/09 02:20:46;;;;;;;12.70;10.03;;;4.10;99.90;;;;;;10428300;28;20342;-73
2022/12/09 02:26:39;;;;;;;12.83;9.07;;;4.10;99.90;;;;;;10435380;28;20217;-73
2022/12/09 02:32:02;;;;;;;14.03;10.50;;;4.10;99.90;;;;;;10411080;28;20260;-72
2022/12/09 02:37:13;;;;;;;13.60;10.17;;;4.10;99.90;;;;;;10418963;28;20282;-71
2022/12/09 02:42:17;;;;;;;14.03;10.23;;;4.10;99.90;;;;;;10437963;28;20255;-73
2022/12/09 02:47:21;;;;;;;15.83;10.73;;;4.00;99.90;;;;;;10433957;28;20216;-74
2022/12/09 02:52:23;;;;;;;12.67;10.20;;;4.00;99.90;;;;;;10425826;28;20762;-74
2022/12/09 02:57:27;;;;;;;15.50;11.50;;;4.00;99.90;;;;;;10445282;28;20216;-74
2022/12/09 03:02:32;;;;;;;16.63;11.97;;;4.00;99.90;;;;;;10429757;28;20240;-74
2022/12/09 03:08:07;;;;;;;15.43;11.00;;;3.90;99.90;;;;;;10445690;28;20220;-72
2022/12/09 03:13:41;;;;;;;15.90;11.30;;;3.90;99.90;;;;;;10425206;28;20631;-72
2022/12/09 03:18:46;;;;;;;17.27;12.27;;;3.90;99.90;;;;;;10433692;28;20599;-71
2022/12/09 03:23:53;;;;;;;15.47;11.70;;;3.90;99.90;;;;;;10443529;28;20267;-72
2022/12/09 03:28:54;;;;;;;15.73;11.67;;;3.80;99.90;;;;;;10432086;28;20775;-71
2022/12/09 03:33:58;;;;;;;16.83;11.57;;;3.80;99.90;;;;;;10424337;28;20228;-70
2022/12/09 03:39:00;;;;;;;16.10;12.53;;;3.80;99.90;;;;;;10438590;28;20235;-71
2022/12/09 03:44:10;;;;;;;15.63;10.80;;;3.80;99.90;;;;;;10417953;28;20216;-71
2022/12/09 03:49:11;;;;;;;18.87;12.23;;;3.70;99.90;;;;;;10432060;28;20775;-71
2022/12/09 03:54:20;;;;;;;18.20;11.77;;;3.70;99.90;;;;;;10419772;28;20243;-73
2022/12/09 03:59:24;;;;;;;19.97;12.37;;;3.60;99.90;;;;;;10427541;28;20219;-72
2022/12/09 04:04:25;;;;;;;18.03;11.47;;;3.50;99.90;;;;;;10419459;28;20299;-72
2022/12/09 04:09:26;;;;;;;16.13;11.37;;;3.50;99.90;;;;;;10437001;28;20859;-73
2022/12/09 04:14:27;;;;;;;16.13;11.43;;;3.40;99.90;;;;;;10416068;28;20236;-71
2022/12/09 04:19:27;;;;;;;20.70;12.80;;;3.40;99.90;;;;;;10425234;28;20228;-73
2022/12/09 04:24:28;;;;;;;19.63;13.03;;;3.30;99.90;;;;;;10437820;28;20212;-72
2022/12/09 04:29:29;;;;;;;19.67;13.10;;;3.30;99.90;;;;;;10419765;28;20251;-72
2022/12/09 04:34:30;;;;;;;15.80;12.00;;;3.20;99.90;;;;;;10435927;28;20215;-72
2022/12/09 04:39:31;;;;;;;17.70;12.80;;;3.20;99.90;;;;;;10428679;28;20220;-75
2022/12/09 04:44:32;;;;;;;19.70;13.53;;;3.00;99.90;;;;;;10419366;28;20220;-74
2022/12/09 04:49:32;;;;;;;19.50;13.53;;;2.90;99.90;;;;;;10433767;28;20303;-75
2022/12/09 04:54:33;;;;;;;21.63;15.07;;;2.80;99.90;;;;;;10414214;28;20621;-72
2022/12/09 04:59:33;;;;;;;20.00;13.80;;;2.70;99.90;;;;;;10439128;28;20227;-72
2022/12/09 05:04:34;;;;;;;22.90;14.97;;;2.60;99.90;;;;;;10421560;28;20227;-72
2022/12/09 05:09:35;;;;;;;22.70;14.97;;;2.50;99.90;;;;;;10433664;28;20220;-72
2022/12/09 05:14:35;;;;;;;25.23;15.00;;;2.50;99.90;;;;;;10426614;28;20600;-73
2022/12/09 05:19:36;;;;;;;22.57;14.00;;;2.50;99.90;;;;;;10420169;28;20217;-73
2022/12/09 05:24:36;;;;;;;20.33;13.27;;;2.50;99.90;;;;;;10417970;28;20234;-73
2022/12/09 05:29:37;;;;;;;25.50;14.97;;;2.40;99.90;;;;;;10426443;28;20642;-73
2022/12/09 05:34:38;;;;;;;20.97;13.63;;;2.20;99.90;;;;;;10417169;28;20223;-74
2022/12/09 05:39:38;;;;;;;20.10;14.10;;;2.10;99.90;;;;;;10430224;28;20264;-76
2022/12/09 05:44:39;;;;;;;24.00;14.03;;;2.00;99.90;;;;;;10426984;28;20217;-75
2022/12/09 05:49:39;;;;;;;30.77;15.67;;;1.90;99.90;;;;;;10424623;28;20224;-74
2022/12/09 05:54:40;;;;;;;23.23;14.80;;;1.90;99.90;;;;;;10431207;28;20227;-74
2022/12/09 05:59:41;;;;;;;19.33;14.07;;;1.90;99.90;;;;;;10428003;28;20277;-72
2022/12/09 06:04:41;;;;;;;26.20;14.63;;;1.80;99.90;;;;;;10443330;28;20208;-72
2022/12/09 06:09:43;;;;;;;24.00;15.30;;;1.70;99.90;;;;;;10421915;28;20303;-70
2022/12/09 06:14:43;;;;;;;20.33;14.60;;;1.70;99.90;;;;;;10418820;28;20219;-72
2022/12/09 06:19:44;;;;;;;23.23;15.17;;;1.70;99.90;;;;;;10443401;28;20243;-74
2022/12/09 06:24:44;;;;;;;20.00;13.60;;;1.70;99.90;;;;;;10427647;28;20748;-73
2022/12/09 06:29:45;;;;;;;25.80;14.70;;;1.70;99.90;;;;;;10433709;28;20219;-74
2022/12/09 06:34:45;;;;;;;24.27;14.20;;;1.70;99.90;;;;;;10421975;28;20251;-71
2022/12/09 06:39:46;;;;;;;24.07;14.13;;;1.70;99.90;;;;;;10445046;28;20211;-70
2022/12/09 06:44:46;;;;;;;22.27;13.83;;;1.70;99.90;;;;;;10430666;28;20863;-71
2022/12/09 06:49:47;;;;;;;24.73;14.43;;;1.60;99.90;;;;;;10422523;28;20251;-73
2022/12/09 06:54:48;;;;;;;21.23;13.60;;;1.50;99.90;;;;;;10430977;28;20224;-74
2022/12/09 06:59:48;;;;;;;22.27;14.33;;;1.50;99.90;;;;;;10431980;28;20282;-75
2022/12/09 07:04:55;;;;;;;25.67;14.57;;;1.60;99.90;;;;;;10422449;28;20295;-72
2022/12/09 07:09:56;;;;;;;22.17;14.73;;;1.80;99.90;;;;;;10427822;28;20244;-73
2022/12/09 07:14:57;;;;;;;24.10;14.73;;;1.90;99.90;;;;;;10441893;28;20579;-75
2022/12/09 07:19:58;;;;;;;23.17;14.73;;;1.90;99.90;;;;;;10440738;28;20224;-73
2022/12/09 07:24:59;;;;;;;28.17;14.37;;;1.90;99.90;;;;;;10430126;28;20220;-71
2022/12/09 07:29:59;;;;;;;20.43;14.53;;;1.90;99.90;;;;;;10432102;28;20220;-74
2022/12/09 07:35:00;;;;;;;22.17;14.00;;;1.80;99.90;;;;;;10440181;28;20268;-74
2022/12/09 07:40:01;;;;;;;25.50;14.97;;;1.70;99.90;;;;;;10435445;28;20313;-74
2022/12/09 07:45:02;;;;;;;21.03;14.27;;;1.70;99.90;;;;;;10436762;28;20220;-75
2022/12/09 07:50:03;;;;;;;24.57;15.63;;;1.70;99.90;;;;;;10427944;28;20232;-75
2022/12/09 07:55:04;;;;;;;30.00;15.37;;;1.70;99.90;;;;;;10450052;28;20232;-75
2022/12/09 08:00:05;;;;;;;23.00;13.70;;;1.80;99.90;;;;;;10430108;28;20781;-74
2022/12/09 08:05:06;;;;;;;24.60;14.67;;;1.90;99.90;;;;;;10429109;28;20192;-76
2022/12/09 08:10:07;;;;;;;22.10;13.53;;;2.00;99.90;;;;;;10438813;28;20262;-76
2022/12/09 08:15:08;;;;;;;22.30;14.60;;;2.00;99.90;;;;;;10439762;28;20220;-76
2022/12/09 08:20:09;;;;;;;23.07;15.33;;;2.20;99.90;;;;;;10437097;28;20591;-73
2022/12/09 08:25:10;;;;;;;24.33;13.80;;;2.30;99.90;;;;;;10475860;28;20188;-73
2022/12/09 08:30:11;;;;;;;21.73;13.53;;;2.40;99.90;;;;;;10422349;28;20283;-74
2022/12/09 08:35:13;;;;;;;17.40;12.63;;;2.60;99.90;;;;;;10468091;28;20192;-75
2022/12/09 08:40:14;;;;;;;20.37;13.07;;;2.80;99.90;;;;;;10426931;28;20216;-74
2022/12/09 08:45:15;;;;;;;18.90;12.50;;;3.00;99.90;;;;;;10426727;28;20188;-74
2022/12/09 08:50:15;;;;;;;20.13;13.13;;;3.40;99.90;;;;;;10434681;28;20185;-73
2022/12/09 08:55:16;;;;;;;15.90;12.00;;;4.10;99.90;;;;;;10433652;28;20208;-74
2022/12/09 09:00:18;;;;;;;15.37;11.53;;;4.90;99.90;;;;;;10429285;28;20295;-74
2022/12/09 09:05:18;;;;;;;19.83;12.17;;;4.80;99.90;;;;;;10442337;28;20188;-76
2022/12/09 09:10:19;;;;;;;15.00;11.60;;;4.60;99.90;;;;;;10447925;28;20196;-77
2022/12/09 09:15:20;;;;;;;17.57;11.27;;;4.40;99.90;;;;;;10436192;28;20568;-74
2022/12/09 09:20:20;;;;;;;17.73;12.53;;;4.60;99.90;;;;;;10422147;28;20551;-72
2022/12/09 09:25:21;;;;;;;18.43;12.30;;;4.60;99.90;;;;;;10441878;28;20272;-73
2022/12/09 09:30:21;;;;;;;16.43;11.60;;;5.20;99.90;;;;;;10430916;28;20183;-73
2022/12/09 09:35:26;;;;;;;17.47;12.10;;;5.60;99.90;;;;;;10451005;28;20250;-70
2022/12/09 09:40:28;;;;;;;18.77;12.47;;;5.50;99.90;;;;;;10460689;28;20247;-73
2022/12/09 09:45:29;;;;;;;17.70;11.63;;;5.30;99.90;;;;;;10466083;28;20603;-71
2022/12/09 09:50:55;;;;;;;15.20;11.50;;;5.10;99.90;;;;;;10464328;28;20223;-71
2022/12/09 09:55:57;;;;;;;17.03;12.50;;;5.00;99.90;;;;;;10452450;28;20220;-72
2022/12/09 10:01:07;;;;;;;15.63;11.57;;;4.90;99.90;;;;;;10461841;28;20237;-72
2022/12/09 10:06:29;;;;;;;15.53;11.57;;;5.00;99.90;;;;;;10447240;28;20212;-73
2022/12/09 10:12:24;;;;;;;;;;;;;;;;;;;;;
2022/12/09 10:17:40;;;;;;;16.70;11.40;;;7.20;99.90;;;;;;10409100;28;20223;-71
2022/12/09 10:22:55;;;;;;;15.40;11.07;;;8.10;99.90;;;;;;10460051;28;20221;-72
2022/12/09 10:28:13;;;;;;;15.33;10.60;;;10.00;99.90;;;;;;10458566;28;20223;-74
2022/12/09 10:33:15;;;;;;;14.00;10.87;;;9.90;99.90;;;;;;10440941;28;20277;-75
2022/12/09 10:38:18;;;;;;;15.57;11.63;;;9.70;99.90;;;;;;10430338;28;20257;-77
2022/12/09 10:43:37;;;;;;;15.63;10.77;;;8.70;99.90;;;;;;10458383;28;21043;-73
2022/12/09 10:48:47;;;;;;;16.43;11.47;;;8.60;99.90;;;;;;10440275;28;20234;-72
2022/12/09 10:54:25;;;;;;;16.80;11.53;;;7.80;99.90;;;;;;10452769;28;20221;-69
2022/12/09 10:59:31;;;;;;;15.43;11.00;;;8.40;99.90;;;;;;10372388;28;20226;-70
2022/12/09 11:04:41;;;;;;;12.77;9.57;;;8.50;99.90;;;;;;10431547;28;20217;-69
2022/12/09 11:10:04;;;;;;;13.93;10.13;;;8.50;99.90;;;;;;10439297;28;20701;-70
2022/12/09 11:15:11;;;;;;;14.80;10.73;;;8.80;99.90;;;;;;10443633;28;20209;-69
2022/12/09 11:20:24;;;;;;;15.10;10.07;;;7.90;99.90;;;;;;10426477;28;20686;-70
2022/12/09 11:25:31;;;;;;;13.87;10.50;;;6.90;99.90;;;;;;10442224;28;20275;-70
2022/12/09 11:30:47;;;;;;;14.20;10.80;;;6.50;99.90;;;;;;10436149;28;20215;-69
2022/12/09 11:35:48;;;;;;;13.43;10.07;;;6.20;99.90;;;;;;10430626;28;20209;-70
2022/12/09 11:41:05;;;;;;;12.90;9.80;;;5.90;99.90;;;;;;10447329;28;20660;-72
2022/12/09 11:46:28;;;;;;;11.67;9.67;;;5.90;99.90;;;;;;10439905;28;20924;-73
2022/12/09 11:51:36;;;;;;;15.40;9.50;;;5.70;99.90;;;;;;10429093;28;20213;-72
2022/12/09 11:56:39;;;;;;;13.53;8.83;;;5.30;99.90;;;;;;10432404;28;20326;-72
2022/12/09 12:02:04;;;;;;;14.93;9.53;;;5.30;99.90;;;;;;10435113;28;20229;-71
2022/12/09 12:07:20;;;;;;;13.53;9.53;;;5.20;99.90;;;;;;10429012;28;20751;-71
2022/12/09 12:12:32;;;;;;;16.07;9.93;;;5.20;99.90;;;;;;10444116;28;20222;-71
2022/12/09 12:17:37;;;;;;;11.77;9.00;;;4.90;99.90;;;;;;10449838;28;20264;-72
2022/12/09 12:23:01;;;;;;;14.50;9.63;;;4.70;99.90;;;;;;10437381;28;20220;-72
2022/12/09 12:28:26;;;;;;;15.13;9.77;;;4.70;99.90;;;;;;10438098;28;20229;-71
2022/12/09 12:33:47;;;;;;;12.87;9.60;;;4.80;99.90;;;;;;10444548;28;20590;-71
2022/12/09 12:39:12;;;;;;;12.47;9.87;;;5.10;99.90;;;;;;10439766;28;20278;-71
2022/12/09 12:50:32;;;;;;;13.27;8.77;;;5.00;99.90;;;;;;10434990;28;20224;-71
2022/12/09 12:55:52;;;;;;;13.87;9.90;;;4.70;99.90;;;;;;10432106;28;20221;-72
2022/12/09 13:01:21;;;;;;;14.07;8.83;;;4.60;99.90;;;;;;10428832;28;20238;-72
2022/12/09 13:06:48;;;;;;;14.33;10.27;;;4.60;99.90;;;;;;10453570;28;20234;-75
2022/12/09 13:12:05;;;;;;;18.10;10.53;;;4.60;99.90;;;;;;10427607;28;20216;-71
2022/12/09 13:17:11;;;;;;;14.73;11.13;;;4.70;99.90;;;;;;10431263;28;20294;-69
2022/12/09 13:22:42;;;;;;;17.17;11.60;;;4.70;99.90;;;;;;10432475;28;20233;-69
2022/12/09 13:28:00;;;;;;;18.10;11.83;;;4.80;99.90;;;;;;10442156;28;20266;-72
2022/12/09 13:33:13;;;;;;;18.07;12.37;;;4.90;99.90;;;;;;10424237;28;20220;-72
2022/12/09 13:38:32;;;;;;;16.03;12.13;;;4.90;99.90;;;;;;10429139;28;20228;-73
2022/12/09 13:43:38;;;;;;;18.40;11.10;;;4.80;99.90;;;;;;10425027;28;20217;-70
2022/12/09 13:48:42;;;;;;;15.30;11.03;;;4.80;99.90;;;;;;10427528;28;20227;-69
2022/12/09 13:53:58;;;;;;;13.77;10.60;;;4.70;99.90;;;;;;10420695;28;20282;-69
2022/12/09 13:59:17;;;;;;;13.53;10.37;;;4.60;99.90;;;;;;10422227;28;20258;-69
2022/12/09 14:04:41;;;;;;;16.73;11.27;;;4.50;99.90;;;;;;10432001;28;20207;-68
2022/12/09 14:09:47;;;;;;;13.40;10.83;;;4.40;99.90;;;;;;10429886;28;20244;-70
2022/12/09 14:14:50;;;;;;;13.40;10.10;;;4.40;99.90;;;;;;10434067;28;20238;-71
2022/12/09 14:19:59;;;;;;;16.23;10.57;;;4.40;99.90;;;;;;10465124;28;20231;-69
2022/12/09 14:25:24;;;;;;;20.50;12.10;;;4.30;99.90;;;;;;10427728;28;20295;-71
2022/12/09 14:30:28;;;;;;;14.03;9.83;;;4.30;99.90;;;;;;10450710;28;20273;-70
2022/12/09 14:35:40;;;;;;;14.60;10.07;;;4.20;99.90;;;;;;10455643;28;20265;-71
2022/12/09 14:40:51;;;;;;;14.27;10.53;;;4.20;99.90;;;;;;10434723;28;20251;-72
2022/12/09 14:45:59;;;;;;;14.27;10.30;;;4.10;99.90;;;;;;10449103;28;20725;-73
2022/12/09 14:51:15;;;;;;;14.00;10.07;;;4.10;99.90;;;;;;10449343;28;20250;-73
2022/12/09 14:56:18;;;;;;;13.67;9.63;;;4.10;99.90;;;;;;10444984;28;20227;-72
2022/12/09 15:01:22;;;;;;;13.63;9.87;;;4.10;99.90;;;;;;10457588;28;20300;-71
2022/12/09 15:06:26;;;;;;;12.83;9.87;;;4.10;99.90;;;;;;10451609;28;20247;-72
2022/12/09 15:11:33;;;;;;;12.77;10.17;;;4.00;99.90;;;;;;10448460;28;20265;-72
2022/12/09 15:16:40;;;;;;;13.00;9.60;;;4.00;99.90;;;;;;10438128;28;20787;-74
2022/12/09 15:21:45;;;;;;;13.00;10.33;;;4.00;99.90;;;;;;10444459;28;20216;-74
2022/12/09 15:27:01;;;;;;;12.33;10.10;;;3.90;99.90;;;;;;10462104;28;20235;-74
2022/12/09 15:32:01;;;;;;;12.77;10.00;;;3.90;99.90;;;;;;10468044;28;20220;-72
2022/12/09 15:37:04;;;;;;;13.27;10.10;;;3.90;99.90;;;;;;10472480;28;20778;-71
2022/12/09 15:42:10;;;;;;;16.03;10.73;;;3.90;99.90;;;;;;10473872;28;20261;-75
2022/12/09 15:47:19;;;;;;;14.23;10.37;;;3.90;99.90;;;;;;10454609;28;20847;-74
2022/12/09 15:52:26;;;;;;;13.87;9.93;;;3.90;99.90;;;;;;10438501;28;20303;-76
2022/12/09 15:57:28;;;;;;;13.03;9.40;;;3.90;99.90;;;;;;10437106;28;20721;-76
2022/12/09 16:02:31;;;;;;;16.13;10.53;;;3.80;99.90;;;;;;10453080;28;20339;-77
2022/12/09 16:07:32;;;;;;;13.83;9.53;;;3.80;99.90;;;;;;10434728;28;20332;-78
2022/12/09 16:12:34;;;;;;;12.77;10.00;;;3.80;99.90;;;;;;10439496;28;20234;-78
2022/12/09 16:17:55;;;;;;;14.20;10.40;;;3.70;99.90;;;;;;10454096;28;20314;-76
2022/12/09 16:22:56;;;;;;;13.17;9.87;;;3.70;99.90;;;;;;10438806;28;20229;-77
2022/12/09 16:28:01;;;;;;;13.10;9.97;;;3.70;99.90;;;;;;10435007;28;20216;-77
2022/12/09 16:33:02;;;;;;;16.00;9.47;;;3.70;99.90;;;;;;10443685;28;20208;-78
2022/12/09 16:38:15;;;;;;;14.83;10.13;;;3.60;99.90;;;;;;10430140;28;20217;-78
2022/12/09 16:43:15;;;;;;;14.10;10.13;;;3.60;99.90;;;;;;10434778;28;20224;-76
2022/12/09 16:48:17;;;;;;;15.67;10.10;;;3.50;99.90;;;;;;10429971;28;20221;-79
2022/12/09 16:53:33;;;;;;;13.40;10.23;;;3.40;99.90;;;;;;10434444;28;20227;-77
2022/12/09 16:58:34;;;;;;;14.30;10.00;;;3.40;99.90;;;;;;10436655;28;20228;-79
2022/12/09 17:03:44;;;;;;;12.93;10.33;;;3.40;99.90;;;;;;10433251;28;20309;-77
2022/12/09 17:08:45;;;;;;;15.40;10.07;;;3.40;99.90;;;;;;10438448;28;20213;-78
2022/12/09 17:13:47;;;;;;;13.33;9.20;;;3.30;99.90;;;;;;10435942;28;20223;-78
2022/12/09 17:18:48;;;;;;;13.97;10.60;;;3.20;99.90;;;;;;10431027;28;20642;-76
2022/12/09 17:23:48;;;;;;;13.03;10.20;;;3.20;99.90;;;;;;10430132;28;20358;-75
2022/12/09 17:28:50;;;;;;;14.10;10.87;;;3.20;99.90;;;;;;10433115;28;20223;-78
2022/12/09 17:33:57;;;;;;;14.57;10.37;;;3.20;99.90;;;;;;10441271;28;20694;-77
2022/12/09 17:39:02;;;;;;;13.27;10.27;;;3.10;99.90;;;;;;10425856;28;20255;-78
2022/12/09 17:44:02;;;;;;;15.67;11.27;;;3.10;99.90;;;;;;10428624;28;20724;-79
2022/12/09 17:49:03;;;;;;;15.93;11.07;;;3.10;99.90;;;;;;10433852;28;20228;-78
2022/12/09 17:54:04;;;;;;;15.33;11.90;;;3.10;99.90;;;;;;10428533;28;20239;-77
2022/12/09 17:59:09;;;;;;;15.90;11.73;;;3.00;99.90;;;;;;10430076;28;20232;-78
2022/12/09 18:04:10;;;;;;;14.53;11.63;;;3.10;99.90;;;;;;10432014;28;20776;-76
2022/12/09 18:09:13;;;;;;;14.43;10.63;;;3.00;99.90;;;;;;10425641;28;20230;-76
2022/12/09 18:14:18;;;;;;;12.97;10.30;;;3.10;99.90;;;;;;10426021;28;20228;-78
2022/12/09 18:19:19;;;;;;;13.37;11.53;;;3.10;99.90;;;;;;10425577;28;20229;-70
2022/12/09 18:24:20;;;;;;;16.30;11.13;;;3.00;99.90;;;;;;10430524;28;20215;-69
2022/12/09 18:29:21;;;;;;;17.10;11.57;;;3.00;99.90;;;;;;10431260;28;20303;-70
2022/12/09 18:35:02;;;;;;;16.77;11.83;;;3.00;99.90;;;;;;10422423;28;20310;-70
2022/12/09 18:40:03;;;;;;;17.47;12.40;;;2.90;99.90;;;;;;10424204;28;20227;-70
2022/12/09 18:45:04;;;;;;;16.73;12.63;;;3.00;99.90;;;;;;10422439;28;20294;-70
2022/12/09 18:50:05;;;;;;;17.50;13.13;;;3.00;99.90;;;;;;10427205;28;20220;-70
2022/12/09 18:55:06;;;;;;;16.73;12.53;;;3.00;99.90;;;;;;10427026;28;20204;-70
2022/12/09 19:00:07;;;;;;;15.97;12.93;;;3.00;99.90;;;;;;10421900;28;20265;-70
2022/12/09 19:05:11;;;;;;;18.77;12.47;;;3.00;99.90;;;;;;10432759;28;20215;-70
2022/12/09 19:10:11;;;;;;;19.13;12.87;;;2.90;99.90;;;;;;10431489;28;20189;-70
2022/12/09 19:15:13;;;;;;;18.87;13.33;;;2.90;99.90;;;;;;10435801;28;20185;-70
2022/12/09 19:20:13;;;;;;;17.10;12.60;;;2.90;99.90;;;;;;10436620;28;20207;-70
2022/12/09 19:25:14;;;;;;;20.73;13.50;;;2.90;99.90;;;;;;10431474;28;20715;-71
2022/12/09 19:30:14;;;;;;;19.37;13.50;;;2.80;99.90;;;;;;10444440;28;20180;-70
2022/12/09 19:35:15;;;;;;;20.23;13.87;;;2.80;99.90;;;;;;10423000;28;20268;-69
2022/12/09 19:40:17;;;;;;;17.30;12.90;;;2.80;99.90;;;;;;10434297;28;20206;-70
2022/12/09 19:45:20;;;;;;;22.07;14.63;;;2.80;99.90;;;;;;10437155;28;20196;-69
2022/12/09 19:50:21;;;;;;;20.37;14.87;;;2.70;99.90;;;;;;10437823;28;20188;-70
2022/12/09 19:55:21;;;;;;;23.53;15.90;;;2.70;99.90;;;;;;10428085;28;20242;-71
2022/12/09 20:00:22;;;;;;;21.33;15.37;;;2.70;99.90;;;;;;10436701;28;20246;-70
2022/12/09 20:05:23;;;;;;;21.43;15.83;;;2.70;99.90;;;;;;10436186;28;20216;-70
2022/12/09 20:10:23;;;;;;;22.17;15.73;;;2.60;99.90;;;;;;10427198;28;20254;-69
2022/12/09 20:15:24;;;;;;;23.57;16.37;;;2.60;99.90;;;;;;10434529;28;20250;-70
2022/12/09 20:20:24;;;;;;;22.07;15.73;;;2.60;99.90;;;;;;10436782;28;20242;-71
2022/12/09 20:25:25;;;;;;;22.07;15.43;;;2.60;99.90;;;;;;10428538;28;20216;-70
2022/12/09 20:30:26;;;;;;;21.33;16.10;;;2.60;99.90;;;;;;10434507;28;20238;-71
2022/12/09 20:35:27;;;;;;;22.53;15.80;;;2.50;99.90;;;;;;10428902;28;20216;-70
2022/12/09 20:40:28;;;;;;;23.60;16.40;;;2.50;99.90;;;;;;10435091;28;20306;-71
2022/12/09 20:45:28;;;;;;;21.03;14.83;;;2.50;99.90;;;;;;10427651;28;20220;-70
2022/12/09 20:50:29;;;;;;;22.97;15.93;;;2.40;99.90;;;;;;10435631;28;20306;-71
2022/12/09 20:55:29;;;;;;;22.20;15.80;;;2.40;99.90;;;;;;10427291;28;20334;-70
2022/12/09 21:00:30;;;;;;;23.27;16.13;;;2.40;99.90;;;;;;10420014;28;20228;-70
2022/12/09 21:05:34;;;;;;;22.23;17.23;;;2.40;99.90;;;;;;10435369;28;20227;-69
2022/12/09 21:10:35;;;;;;;25.57;17.07;;;2.50;99.90;;;;;;10434045;28;20242;-70
2022/12/09 21:15:37;;;;;;;24.40;16.53;;;2.40;99.90;;;;;;10428235;28;20286;-70
2022/12/09 21:20:38;;;;;;;23.10;17.10;;;2.40;99.90;;;;;;10434425;28;20248;-71
2022/12/09 21:25:38;;;;;;;23.53;17.20;;;2.40;99.90;;;;;;10442281;28;20698;-79
2022/12/09 21:30:39;;;;;;;25.17;16.13;;;2.40;99.90;;;;;;10434930;28;20230;-79
2022/12/09 21:35:44;;;;;;;24.63;16.97;;;2.30;99.90;;;;;;10427141;28;20271;-79
2022/12/09 21:40:44;;;;;;;24.87;16.20;;;2.40;99.90;;;;;;10438860;28;20249;-77
2022/12/09 21:45:45;;;;;;;22.67;16.20;;;2.30;99.90;;;;;;10441191;28;20302;-77
2022/12/09 21:50:53;;;;;;;24.43;17.07;;;2.40;99.90;;;;;;10425189;28;20354;-75
2022/12/09 21:56:15;;;;;;;23.83;16.70;;;2.40;99.90;;;;;;10431280;28;20230;-72
2022/12/09 22:01:22;;;;;;;22.40;15.37;;;2.40;99.90;;;;;;10428449;28;20228;-78
2022/12/09 22:06:23;;;;;;;22.70;15.50;;;2.50;99.90;;;;;;10436185;28;20696;-75
2022/12/09 22:11:26;;;;;;;22.97;15.93;;;2.40;99.90;;;;;;10435328;28;20230;-77
2022/12/09 22:16:40;;;;;;;24.00;16.13;;;2.40;99.90;;;;;;10436244;28;20220;-78
2022/12/09 22:21:40;;;;;;;22.37;16.47;;;2.40;99.90;;;;;;10425797;28;20235;-78
2022/12/09 22:26:44;;;;;;;23.93;17.80;;;2.40;99.90;;;;;;10429024;28;20223;-78
2022/12/09 22:31:46;;;;;;;23.37;16.83;;;2.30;99.90;;;;;;10429954;28;20562;-75
2022/12/09 22:36:48;;;;;;;21.60;15.67;;;2.30;99.90;;;;;;10428312;28;20616;-77
2022/12/09 22:41:49;;;;;;;21.23;15.80;;;2.30;99.90;;;;;;10439654;28;20232;-78
2022/12/09 22:46:50;;;;;;;23.00;16.67;;;2.30;99.90;;;;;;10436702;28;20225;-78
2022/12/09 22:51:50;;;;;;;22.83;16.33;;;2.40;99.90;;;;;;10439658;28;20303;-77
2022/12/09 22:56:51;;;;;;;22.73;16.33;;;2.40;99.90;;;;;;10445646;28;20306;-78
2022/12/09 23:01:52;;;;;;;23.30;16.40;;;2.40;99.90;;;;;;10439129;28;20925;-78
2022/12/09 23:06:52;;;;;;;26.37;15.80;;;2.40;99.90;;;;;;10437288;28;20216;-77
2022/12/09 23:11:53;;;;;;;25.03;17.50;;;2.40;99.90;;;;;;10438231;28;20270;-79
2022/12/09 23:16:54;;;;;;;26.00;17.80;;;2.40;99.90;;;;;;10442052;28;20256;-78
2022/12/09 23:21:54;;;;;;;20.37;15.93;;;2.40;99.90;;;;;;10436244;28;20230;-78
2022/12/09 23:26:57;;;;;;;22.67;16.30;;;2.30;99.90;;;;;;10432172;28;20223;-78
2022/12/09 23:31:58;;;;;;;24.40;16.47;;;2.30;99.90;;;;;;10435351;28;20220;-79
2022/12/09 23:36:59;;;;;;;22.77;15.83;;;2.30;99.90;;;;;;10442057;28;20208;-76
2022/12/09 23:41:59;;;;;;;22.23;17.10;;;2.30;99.90;;;;;;10445874;28;20246;-78
2022/12/09 23:47:00;;;;;;;22.93;16.00;;;2.30;99.90;;;;;;10433093;28;20299;-78
2022/12/09 23:52:00;;;;;;;23.00;16.43;;;2.30;99.90;;;;;;10435380;28;20580;-77
2022/12/09 23:57:01;;;;;;;23.83;16.57;;;2.30;99.90;;;;;;10437418;28;20248;-78
